AFL3500 URSS-VTSP
Flight info
| Callsign | AFL3500 |
|---|---|
| Flight time | N/A |
| Altitude | 39000 |
| Route | BINOL G487 GUBOR A944 RESLO B491 BISNA/N0497F390 M23 MARAL B450 MAMED B449 RANAH L750 ZB G201 BINDO L750 MERUN L333 JJP J1 KKJ L759 SATVA SATVA1D |
| Aircraft | A359/H-SDE2E3GHIJ3J4J5LM1ORWXY/LB1D1 |
Departure
| Time | 2026-05-07 22:45 |
|---|---|
| Airport | Sochi International Airport (URSS) |
Arrival
| Time | N/A |
|---|---|
| Airport | Phuket International Airport (VTSP) |
| Time | Latitude | Longitude | Altitude | Speed | Heading |
|---|---|---|---|---|---|
| 2026-05-07 21:13 | 43.44894 | 39.94521 | 81 ft | 0 kts | 298° |
| 2026-05-07 22:35 | 43.44890 | 39.94531 | 83 ft | 3 kts | 300° |
| 2026-05-07 22:35 | 43.44879 | 39.94555 | 84 ft | 3 kts | 307° |
| 2026-05-07 22:35 | 43.44867 | 39.94577 | 85 ft | 3 kts | 313° |
| 2026-05-07 22:36 | 43.44852 | 39.94596 | 85 ft | 3 kts | 320° |
| 2026-05-07 22:36 | 43.44836 | 39.94613 | 84 ft | 3 kts | 327° |
| 2026-05-07 22:36 | 43.44819 | 39.94627 | 85 ft | 3 kts | 330° |
| 2026-05-07 22:36 | 43.44803 | 39.94641 | 85 ft | 2 kts | 325° |
| 2026-05-07 22:37 | 43.44788 | 39.94652 | 84 ft | 3 kts | 8° |
| 2026-05-07 22:37 | 43.44774 | 39.94642 | 85 ft | 3 kts | 58° |
| 2026-05-07 22:37 | 43.44765 | 39.94618 | 84 ft | 3 kts | 68° |
| 2026-05-07 22:37 | 43.44759 | 39.94596 | 85 ft | 0 kts | 66° |
| 2026-05-07 22:39 | 43.44761 | 39.94603 | 81 ft | 5 kts | 65° |
| 2026-05-07 22:40 | 43.44785 | 39.94676 | 86 ft | 12 kts | 65° |
| 2026-05-07 22:40 | 43.44830 | 39.94807 | 85 ft | 18 kts | 65° |
| 2026-05-07 22:40 | 43.44864 | 39.94906 | 87 ft | 0 kts | 65° |
| 2026-05-07 22:41 | 43.44866 | 39.94914 | 87 ft | 4 kts | 65° |
| 2026-05-07 22:42 | 43.44889 | 39.94981 | 90 ft | 12 kts | 65° |
| 2026-05-07 22:42 | 43.44932 | 39.95103 | 93 ft | 1 kts | 64° |
| 2026-05-07 22:42 | 43.44936 | 39.95123 | 90 ft | 6 kts | 79° |
| 2026-05-07 22:42 | 43.44906 | 39.95197 | 93 ft | 13 kts | 140° |
| 2026-05-07 22:43 | 43.44829 | 39.95156 | 91 ft | 14 kts | 238° |
| 2026-05-07 22:43 | 43.44810 | 39.95104 | 91 ft | 0 kts | 244° |
| 2026-05-07 22:44 | 43.44802 | 39.95081 | 88 ft | 19 kts | 244° |
| 2026-05-07 22:44 | 43.44626 | 39.94567 | 85 ft | 98 kts | 245° |
| 2026-05-07 22:44 | 43.44231 | 39.93408 | 56 ft | 167 kts | 245° |
| 2026-05-07 22:45 | 43.43699 | 39.91794 | 529 ft | 190 kts | 246° |
| 2026-05-07 22:45 | 43.43193 | 39.90141 | 1490 ft | 187 kts | 248° |
| 2026-05-07 22:45 | 43.42901 | 39.88353 | 1754 ft | 206 kts | 276° |
| 2026-05-07 22:45 | 43.43567 | 39.86603 | 2051 ft | 216 kts | 321° |
| 2026-05-07 22:46 | 43.44959 | 39.85928 | 2508 ft | 217 kts | 3° |
| 2026-05-07 22:46 | 43.46333 | 39.86711 | 2945 ft | 217 kts | 45° |
| 2026-05-07 22:46 | 43.47000 | 39.88554 | 3312 ft | 223 kts | 82° |
| 2026-05-07 22:46 | 43.47341 | 39.90657 | 3768 ft | 225 kts | 73° |
| 2026-05-07 22:47 | 43.47885 | 39.92658 | 4391 ft | 221 kts | 67° |
| 2026-05-07 22:47 | 43.48587 | 39.94538 | 4925 ft | 223 kts | 53° |
| 2026-05-07 22:47 | 43.49718 | 39.96001 | 5426 ft | 224 kts | 38° |
| 2026-05-07 22:47 | 43.51024 | 39.97230 | 5720 ft | 237 kts | 32° |
| 2026-05-07 22:48 | 43.52508 | 39.98400 | 5982 ft | 253 kts | 29° |
| 2026-05-07 22:48 | 43.54107 | 39.99567 | 6343 ft | 265 kts | 28° |
| 2026-05-07 22:48 | 43.55763 | 40.00762 | 6859 ft | 270 kts | 28° |
| 2026-05-07 22:48 | 43.57431 | 40.01989 | 7441 ft | 273 kts | 29° |
| 2026-05-07 22:49 | 43.59112 | 40.03257 | 8061 ft | 275 kts | 29° |
| 2026-05-07 22:49 | 43.60795 | 40.04553 | 8686 ft | 278 kts | 30° |
| 2026-05-07 22:49 | 43.62465 | 40.05855 | 9305 ft | 281 kts | 30° |
| 2026-05-07 22:49 | 43.64169 | 40.07191 | 9957 ft | 283 kts | 30° |
| 2026-05-07 22:50 | 43.65896 | 40.08550 | 10480 ft | 289 kts | 30° |
| 2026-05-07 22:50 | 43.67645 | 40.10057 | 10737 ft | 304 kts | 38° |
| 2026-05-07 22:50 | 43.69113 | 40.12246 | 11001 ft | 319 kts | 56° |
| 2026-05-07 22:50 | 43.70289 | 40.14928 | 11276 ft | 333 kts | 62° |
| 2026-05-07 22:51 | 43.71328 | 40.17866 | 11551 ft | 347 kts | 65° |
| 2026-05-07 22:51 | 43.72299 | 40.20946 | 11887 ft | 358 kts | 67° |
| 2026-05-07 22:51 | 43.73266 | 40.24142 | 12437 ft | 362 kts | 67° |
| 2026-05-07 22:51 | 43.74244 | 40.27362 | 13033 ft | 364 kts | 66° |
| 2026-05-07 22:52 | 43.75240 | 40.30590 | 13633 ft | 366 kts | 66° |
| 2026-05-07 22:52 | 43.76257 | 40.33825 | 14219 ft | 368 kts | 66° |
| 2026-05-07 22:52 | 43.77291 | 40.37073 | 14736 ft | 370 kts | 65° |
| 2026-05-07 22:52 | 43.78341 | 40.40342 | 15271 ft | 372 kts | 65° |
| 2026-05-07 22:53 | 43.79398 | 40.43629 | 15844 ft | 374 kts | 65° |
| 2026-05-07 22:53 | 43.80463 | 40.46942 | 16367 ft | 377 kts | 65° |
| 2026-05-07 22:53 | 43.81529 | 40.50267 | 16895 ft | 379 kts | 65° |
| 2026-05-07 22:53 | 43.82586 | 40.53573 | 17433 ft | 381 kts | 65° |
| 2026-05-07 22:54 | 43.83662 | 40.56945 | 17972 ft | 383 kts | 65° |
| 2026-05-07 22:54 | 43.84743 | 40.60335 | 18512 ft | 385 kts | 65° |
| 2026-05-07 22:54 | 43.85830 | 40.63744 | 18982 ft | 388 kts | 65° |
| 2026-05-07 22:54 | 43.86916 | 40.67174 | 19484 ft | 390 kts | 66° |
| 2026-05-07 22:55 | 43.87780 | 40.70752 | 19946 ft | 394 kts | 75° |
| 2026-05-07 22:55 | 43.88246 | 40.74511 | 20440 ft | 397 kts | 81° |
| 2026-05-07 22:55 | 43.88537 | 40.78335 | 20911 ft | 400 kts | 84° |
| 2026-05-07 22:55 | 43.88735 | 40.82143 | 21365 ft | 402 kts | 85° |
| 2026-05-07 22:56 | 43.88892 | 40.86037 | 21864 ft | 406 kts | 85° |
| 2026-05-07 22:56 | 43.89036 | 40.89966 | 22260 ft | 410 kts | 85° |
| 2026-05-07 22:56 | 43.89183 | 40.93934 | 22731 ft | 412 kts | 85° |
| 2026-05-07 22:56 | 43.89336 | 40.97924 | 23172 ft | 416 kts | 85° |
| 2026-05-07 22:57 | 43.89496 | 41.01928 | 23637 ft | 418 kts | 85° |
| 2026-05-07 22:57 | 43.89661 | 41.05963 | 24066 ft | 420 kts | 85° |
| 2026-05-07 22:57 | 43.89829 | 41.10015 | 24478 ft | 422 kts | 85° |
| 2026-05-07 22:57 | 43.89998 | 41.14087 | 24891 ft | 423 kts | 85° |
| 2026-05-07 22:58 | 43.90168 | 41.18175 | 25292 ft | 425 kts | 85° |
| 2026-05-07 22:58 | 43.90337 | 41.22282 | 25701 ft | 427 kts | 85° |
| 2026-05-07 22:58 | 43.90502 | 41.26358 | 26121 ft | 428 kts | 85° |
| 2026-05-07 22:58 | 43.90669 | 41.30496 | 26499 ft | 430 kts | 85° |
| 2026-05-07 22:59 | 43.90833 | 41.34649 | 26879 ft | 432 kts | 85° |
| 2026-05-07 22:59 | 43.90997 | 41.38819 | 27255 ft | 434 kts | 85° |
| 2026-05-07 22:59 | 43.91161 | 41.43022 | 27582 ft | 437 kts | 85° |
| 2026-05-07 22:59 | 43.91324 | 41.47241 | 27952 ft | 439 kts | 85° |
| 2026-05-07 23:00 | 43.91486 | 41.51485 | 28347 ft | 440 kts | 85° |
| 2026-05-07 23:00 | 43.91644 | 41.55672 | 28695 ft | 442 kts | 85° |
| 2026-05-07 23:00 | 43.91806 | 41.59944 | 29024 ft | 444 kts | 85° |
| 2026-05-07 23:00 | 43.91962 | 41.64230 | 29359 ft | 445 kts | 85° |
| 2026-05-07 23:01 | 43.92111 | 41.68527 | 29699 ft | 447 kts | 85° |
| 2026-05-07 23:01 | 43.92259 | 41.72849 | 30014 ft | 449 kts | 85° |
| 2026-05-07 23:01 | 43.92406 | 41.77185 | 30316 ft | 451 kts | 85° |
| 2026-05-07 23:01 | 43.92552 | 41.81540 | 30532 ft | 453 kts | 85° |
| 2026-05-07 23:02 | 43.92699 | 41.85914 | 30741 ft | 455 kts | 85° |
| 2026-05-07 23:02 | 43.92845 | 41.90321 | 30905 ft | 459 kts | 85° |
| 2026-05-07 23:02 | 43.92992 | 41.94754 | 31072 ft | 461 kts | 85° |
| 2026-05-07 23:02 | 43.93135 | 41.99159 | 31273 ft | 463 kts | 85° |
| 2026-05-07 23:03 | 43.93280 | 42.03684 | 31506 ft | 465 kts | 85° |
| 2026-05-07 23:03 | 43.93420 | 42.08109 | 31783 ft | 464 kts | 85° |
| 2026-05-07 23:03 | 43.93560 | 42.12582 | 32047 ft | 464 kts | 85° |
| 2026-05-07 23:03 | 43.93698 | 42.17054 | 32273 ft | 464 kts | 85° |
| 2026-05-07 23:04 | 43.93835 | 42.21530 | 32545 ft | 464 kts | 85° |
| 2026-05-07 23:04 | 43.93970 | 42.26006 | 32799 ft | 464 kts | 85° |
| 2026-05-07 23:04 | 43.94103 | 42.30479 | 33029 ft | 464 kts | 85° |
| 2026-05-07 23:04 | 43.94235 | 42.34959 | 33252 ft | 464 kts | 85° |
| 2026-05-07 23:05 | 43.94365 | 42.39438 | 33459 ft | 465 kts | 85° |
| 2026-05-07 23:05 | 43.94493 | 42.43923 | 33672 ft | 465 kts | 86° |
| 2026-05-07 23:05 | 43.94620 | 42.48411 | 33857 ft | 466 kts | 86° |
| 2026-05-07 23:05 | 43.94745 | 42.52908 | 34063 ft | 466 kts | 86° |
| 2026-05-07 23:06 | 43.94859 | 42.57414 | 34272 ft | 466 kts | 87° |
| 2026-05-07 23:06 | 43.94724 | 42.61855 | 34413 ft | 469 kts | 94° |
| 2026-05-07 23:06 | 43.94167 | 42.66320 | 34526 ft | 472 kts | 101° |
| 2026-05-07 23:06 | 43.93376 | 42.70750 | 34670 ft | 473 kts | 102° |
| 2026-05-07 23:07 | 43.92511 | 42.75159 | 34780 ft | 474 kts | 103° |
| 2026-05-07 23:07 | 43.91609 | 42.79557 | 34910 ft | 474 kts | 104° |
| 2026-05-07 23:07 | 43.90687 | 42.83976 | 35035 ft | 475 kts | 104° |
| 2026-05-07 23:07 | 43.89768 | 42.88378 | 35152 ft | 476 kts | 104° |
| 2026-05-07 23:08 | 43.88850 | 42.92796 | 35247 ft | 477 kts | 104° |
| 2026-05-07 23:08 | 43.87932 | 42.97232 | 35359 ft | 478 kts | 104° |
| 2026-05-07 23:08 | 43.87031 | 43.01600 | 35474 ft | 478 kts | 104° |
| 2026-05-07 23:08 | 43.86116 | 43.06032 | 35595 ft | 479 kts | 104° |
| 2026-05-07 23:09 | 43.85198 | 43.10482 | 35688 ft | 479 kts | 104° |
| 2026-05-07 23:09 | 43.83361 | 43.19359 | 35902 ft | 480 kts | 105° |
| 2026-05-07 23:10 | 43.81508 | 43.28275 | 36033 ft | 483 kts | 105° |
| 2026-05-07 23:10 | 43.79653 | 43.37155 | 36239 ft | 483 kts | 105° |
| 2026-05-07 23:11 | 43.77780 | 43.46081 | 36417 ft | 483 kts | 105° |
| 2026-05-07 23:11 | 43.75898 | 43.55010 | 36605 ft | 483 kts | 105° |
| 2026-05-07 23:12 | 43.74001 | 43.63976 | 36635 ft | 487 kts | 106° |
| 2026-05-07 23:12 | 43.72080 | 43.73010 | 36804 ft | 488 kts | 106° |
| 2026-05-07 23:13 | 43.70170 | 43.81954 | 36966 ft | 488 kts | 106° |
| 2026-05-07 23:13 | 43.68233 | 43.90984 | 37111 ft | 489 kts | 107° |
| 2026-05-07 23:14 | 43.66304 | 43.99944 | 37267 ft | 489 kts | 107° |
| 2026-05-07 23:14 | 43.64355 | 44.08957 | 37420 ft | 489 kts | 107° |
| 2026-05-07 23:15 | 43.62396 | 44.17984 | 37554 ft | 489 kts | 107° |
| 2026-05-07 23:15 | 43.60458 | 44.26985 | 37668 ft | 490 kts | 107° |
| 2026-05-07 23:16 | 43.58519 | 44.35987 | 37689 ft | 492 kts | 107° |
| 2026-05-07 23:16 | 43.56548 | 44.45076 | 37837 ft | 492 kts | 107° |
| 2026-05-07 23:17 | 43.54584 | 44.54078 | 37966 ft | 492 kts | 107° |
| 2026-05-07 23:17 | 43.52600 | 44.63133 | 38090 ft | 492 kts | 107° |
| 2026-05-07 23:18 | 43.50614 | 44.72158 | 38115 ft | 494 kts | 108° |
| 2026-05-07 23:18 | 43.48610 | 44.81225 | 38227 ft | 494 kts | 108° |
| 2026-05-07 23:19 | 43.46602 | 44.90276 | 38322 ft | 494 kts | 108° |
| 2026-05-07 23:19 | 43.44600 | 44.99258 | 38411 ft | 494 kts | 108° |
| 2026-05-07 23:20 | 43.42572 | 45.08324 | 38419 ft | 496 kts | 109° |
| 2026-05-07 23:20 | 43.40539 | 45.17370 | 38497 ft | 496 kts | 109° |
| 2026-05-07 23:21 | 43.38838 | 45.24912 | 38552 ft | 496 kts | 109° |
| 2026-05-07 23:21 | 43.36778 | 45.34011 | 38626 ft | 496 kts | 109° |
| 2026-05-07 23:22 | 43.34721 | 45.43058 | 38583 ft | 498 kts | 109° |
| 2026-05-07 23:22 | 43.32650 | 45.52128 | 38641 ft | 498 kts | 109° |
| 2026-05-07 23:23 | 43.30567 | 45.61199 | 38743 ft | 498 kts | 109° |
| 2026-05-07 23:23 | 43.28457 | 45.70262 | 38784 ft | 498 kts | 110° |
| 2026-05-07 23:24 | 43.26335 | 45.79343 | 38726 ft | 501 kts | 110° |
| 2026-05-07 23:24 | 43.24210 | 45.88415 | 38792 ft | 501 kts | 110° |
| 2026-05-07 23:25 | 43.22782 | 45.94497 | 38826 ft | 500 kts | 110° |
| 2026-05-07 23:25 | 43.19936 | 46.06573 | 38882 ft | 500 kts | 111° |
| 2026-05-07 23:26 | 43.17803 | 46.15673 | 38782 ft | 504 kts | 110° |
| 2026-05-07 23:26 | 43.15688 | 46.24798 | 38866 ft | 503 kts | 110° |
| 2026-05-07 23:27 | 43.12496 | 46.38499 | 38940 ft | 503 kts | 110° |
| 2026-05-07 23:27 | 43.10357 | 46.47609 | 38892 ft | 505 kts | 111° |
| 2026-05-07 23:28 | 43.08203 | 46.56742 | 38945 ft | 505 kts | 111° |
| 2026-05-07 23:28 | 43.06032 | 46.65908 | 38995 ft | 505 kts | 111° |
| 2026-05-07 23:29 | 43.03859 | 46.75049 | 39017 ft | 505 kts | 111° |
| 2026-05-07 23:29 | 43.01692 | 46.84130 | 39057 ft | 504 kts | 111° |
| 2026-05-07 23:30 | 42.99513 | 46.93239 | 39139 ft | 503 kts | 111° |
| 2026-05-07 23:30 | 42.97328 | 47.02327 | 39144 ft | 504 kts | 111° |
| 2026-05-07 23:31 | 42.95145 | 47.11374 | 39132 ft | 505 kts | 112° |
| 2026-05-07 23:31 | 42.92928 | 47.20527 | 39130 ft | 505 kts | 112° |
| 2026-05-07 23:32 | 42.90722 | 47.29599 | 39127 ft | 506 kts | 112° |
| 2026-05-07 23:32 | 42.88490 | 47.38740 | 39114 ft | 507 kts | 112° |
| 2026-05-07 23:33 | 42.86254 | 47.47861 | 39107 ft | 508 kts | 112° |
| 2026-05-07 23:33 | 42.84016 | 47.56955 | 39102 ft | 509 kts | 112° |
| 2026-05-07 23:34 | 42.81570 | 47.66002 | 39107 ft | 506 kts | 118° |
| 2026-05-07 23:34 | 42.78627 | 47.74696 | 39102 ft | 505 kts | 119° |
| 2026-05-07 23:35 | 42.75597 | 47.83323 | 39105 ft | 505 kts | 120° |
| 2026-05-07 23:35 | 42.72559 | 47.91911 | 39103 ft | 506 kts | 120° |
| 2026-05-07 23:36 | 42.71021 | 47.96261 | 39102 ft | 507 kts | 120° |
| 2026-05-07 23:36 | 42.66435 | 48.09225 | 39095 ft | 507 kts | 120° |
| 2026-05-07 23:37 | 42.63382 | 48.17829 | 39097 ft | 508 kts | 120° |
| 2026-05-07 23:37 | 42.60299 | 48.26488 | 39097 ft | 508 kts | 120° |
| 2026-05-07 23:38 | 42.57218 | 48.35117 | 39086 ft | 509 kts | 120° |
| 2026-05-07 23:38 | 42.54119 | 48.43769 | 39098 ft | 509 kts | 120° |
| 2026-05-07 23:39 | 42.51025 | 48.52378 | 39103 ft | 510 kts | 121° |
| 2026-05-07 23:39 | 42.47929 | 48.60980 | 39102 ft | 510 kts | 121° |
| 2026-05-07 23:40 | 42.44799 | 48.69646 | 39100 ft | 510 kts | 121° |
| 2026-05-07 23:40 | 42.41677 | 48.78250 | 39105 ft | 510 kts | 121° |
| 2026-05-07 23:41 | 42.38545 | 48.86860 | 39105 ft | 510 kts | 121° |
| 2026-05-07 23:41 | 42.35413 | 48.95448 | 39102 ft | 510 kts | 121° |
| 2026-05-07 23:42 | 42.33845 | 48.99737 | 39104 ft | 511 kts | 121° |
| 2026-05-07 23:42 | 42.29094 | 49.12698 | 39105 ft | 512 kts | 121° |
| 2026-05-07 23:43 | 42.25949 | 49.21244 | 39105 ft | 512 kts | 121° |
| 2026-05-07 23:43 | 42.22751 | 49.29911 | 39101 ft | 512 kts | 122° |
| 2026-05-07 23:44 | 42.19541 | 49.38415 | 39102 ft | 512 kts | 123° |
| 2026-05-07 23:44 | 42.16281 | 49.46907 | 39102 ft | 512 kts | 123° |
| 2026-05-07 23:45 | 42.13016 | 49.55407 | 39100 ft | 512 kts | 123° |
| 2026-05-07 23:45 | 42.09748 | 49.63921 | 39102 ft | 512 kts | 123° |
| 2026-05-07 23:46 | 42.06473 | 49.72437 | 39105 ft | 513 kts | 123° |
| 2026-05-07 23:46 | 42.03176 | 49.80986 | 39095 ft | 513 kts | 123° |
| 2026-05-07 23:47 | 41.99899 | 49.89458 | 39103 ft | 513 kts | 123° |
| 2026-05-07 23:47 | 41.96589 | 49.97986 | 39102 ft | 514 kts | 123° |
| 2026-05-07 23:48 | 41.93276 | 50.06501 | 39079 ft | 514 kts | 123° |
| 2026-05-07 23:48 | 41.89959 | 50.14999 | 39100 ft | 514 kts | 123° |
| 2026-05-07 23:49 | 41.86645 | 50.23465 | 39102 ft | 515 kts | 123° |
| 2026-05-07 23:49 | 41.83309 | 50.31963 | 39093 ft | 515 kts | 123° |
| 2026-05-07 23:50 | 41.79968 | 50.40449 | 39099 ft | 515 kts | 123° |
| 2026-05-07 23:50 | 41.76612 | 50.48946 | 39100 ft | 515 kts | 124° |
| 2026-05-07 23:51 | 41.73250 | 50.57437 | 39102 ft | 515 kts | 124° |
| 2026-05-07 23:51 | 41.69899 | 50.65873 | 39104 ft | 515 kts | 124° |
| 2026-05-07 23:52 | 41.66533 | 50.74323 | 39101 ft | 515 kts | 124° |
| 2026-05-07 23:52 | 41.63143 | 50.82808 | 39104 ft | 515 kts | 124° |
| 2026-05-07 23:53 | 41.59780 | 50.91204 | 39091 ft | 515 kts | 124° |
| 2026-05-07 23:53 | 41.56381 | 50.99664 | 39103 ft | 515 kts | 124° |
| 2026-05-07 23:54 | 41.53007 | 51.08035 | 39105 ft | 516 kts | 124° |
| 2026-05-07 23:54 | 41.49590 | 51.16491 | 39093 ft | 515 kts | 124° |
| 2026-05-07 23:55 | 41.46174 | 51.24922 | 39108 ft | 516 kts | 124° |
| 2026-05-07 23:55 | 41.42766 | 51.33306 | 39108 ft | 516 kts | 124° |
| 2026-05-07 23:56 | 41.39356 | 51.41675 | 39083 ft | 515 kts | 125° |
| 2026-05-07 23:56 | 41.35915 | 51.50093 | 39112 ft | 516 kts | 125° |
| 2026-05-07 23:57 | 41.32513 | 51.58458 | 39113 ft | 516 kts | 124° |
| 2026-05-07 23:57 | 41.29109 | 51.66860 | 39110 ft | 516 kts | 124° |
| 2026-05-07 23:58 | 41.25687 | 51.75277 | 39111 ft | 516 kts | 125° |
| 2026-05-07 23:58 | 41.22270 | 51.83647 | 39115 ft | 517 kts | 125° |
| 2026-05-07 23:59 | 41.18820 | 51.92068 | 39115 ft | 518 kts | 125° |
| 2026-05-07 23:59 | 41.15385 | 52.00428 | 39114 ft | 518 kts | 126° |
| 2026-05-08 00:00 | 41.11934 | 52.08807 | 39113 ft | 519 kts | 126° |
| 2026-05-08 00:00 | 41.08445 | 52.17252 | 39127 ft | 520 kts | 126° |
| 2026-05-08 00:01 | 41.04965 | 52.25654 | 39114 ft | 520 kts | 126° |
| 2026-05-08 00:01 | 41.01478 | 52.34047 | 39117 ft | 521 kts | 126° |
| 2026-05-08 00:02 | 40.97982 | 52.42440 | 39116 ft | 522 kts | 126° |
| 2026-05-08 00:02 | 40.94466 | 52.50860 | 39108 ft | 522 kts | 126° |
| 2026-05-08 00:03 | 40.90953 | 52.59247 | 39116 ft | 523 kts | 126° |
| 2026-05-08 00:03 | 40.87412 | 52.67672 | 39116 ft | 523 kts | 126° |
| 2026-05-08 00:04 | 40.83869 | 52.76027 | 39104 ft | 523 kts | 127° |
| 2026-05-08 00:04 | 40.80307 | 52.84403 | 39116 ft | 524 kts | 127° |
| 2026-05-08 00:05 | 40.76737 | 52.92780 | 39117 ft | 525 kts | 127° |
| 2026-05-08 00:05 | 40.73151 | 53.01180 | 39116 ft | 525 kts | 127° |
| 2026-05-08 00:06 | 40.69575 | 53.09534 | 39115 ft | 525 kts | 127° |
| 2026-05-08 00:06 | 40.65969 | 53.17935 | 39115 ft | 524 kts | 127° |
| 2026-05-08 00:07 | 40.62379 | 53.26276 | 39117 ft | 524 kts | 127° |
| 2026-05-08 00:07 | 40.58779 | 53.34613 | 39119 ft | 525 kts | 127° |
| 2026-05-08 00:08 | 40.55149 | 53.42999 | 39112 ft | 525 kts | 127° |
| 2026-05-08 00:08 | 40.51547 | 53.51301 | 39104 ft | 525 kts | 127° |
| 2026-05-08 00:09 | 40.48528 | 53.58238 | 39110 ft | 526 kts | 127° |
| 2026-05-08 00:09 | 40.44287 | 53.67957 | 39110 ft | 526 kts | 127° |
| 2026-05-08 00:10 | 40.41240 | 53.74922 | 39099 ft | 525 kts | 127° |
| 2026-05-08 00:10 | 40.37596 | 53.83229 | 39107 ft | 526 kts | 127° |
| 2026-05-08 00:11 | 40.34564 | 53.90126 | 39108 ft | 526 kts | 127° |
| 2026-05-08 00:11 | 40.30303 | 53.99790 | 39094 ft | 526 kts | 128° |
| 2026-05-08 00:12 | 40.26646 | 54.08060 | 39114 ft | 526 kts | 128° |
| 2026-05-08 00:12 | 40.22964 | 54.16361 | 39108 ft | 527 kts | 128° |
| 2026-05-08 00:13 | 40.19281 | 54.24648 | 39094 ft | 527 kts | 128° |
| 2026-05-08 00:13 | 40.15565 | 54.32985 | 39108 ft | 528 kts | 128° |
| 2026-05-08 00:14 | 40.11864 | 54.41264 | 39108 ft | 529 kts | 128° |
| 2026-05-08 00:14 | 40.08158 | 54.49535 | 39104 ft | 528 kts | 128° |
| 2026-05-08 00:15 | 40.04428 | 54.57835 | 39109 ft | 530 kts | 128° |
| 2026-05-08 00:15 | 40.00702 | 54.66102 | 39106 ft | 531 kts | 128° |
| 2026-05-08 00:16 | 39.96958 | 54.74392 | 39093 ft | 531 kts | 128° |
| 2026-05-08 00:16 | 39.93212 | 54.82662 | 39103 ft | 532 kts | 128° |
| 2026-05-08 00:17 | 39.89444 | 54.90955 | 39097 ft | 532 kts | 128° |
| 2026-05-08 00:17 | 39.85665 | 54.99257 | 39093 ft | 532 kts | 128° |
| 2026-05-08 00:18 | 39.81875 | 55.07581 | 39107 ft | 534 kts | 128° |
| 2026-05-08 00:18 | 39.78170 | 55.15985 | 39083 ft | 536 kts | 127° |
| 2026-05-08 00:19 | 39.74488 | 55.24409 | 39091 ft | 537 kts | 127° |
| 2026-05-08 00:19 | 39.70782 | 55.32834 | 39091 ft | 538 kts | 127° |
| 2026-05-08 00:20 | 39.67014 | 55.41278 | 39083 ft | 538 kts | 128° |
| 2026-05-08 00:20 | 39.63178 | 55.49569 | 39085 ft | 537 kts | 129° |
| 2026-05-08 00:21 | 39.59323 | 55.57844 | 39085 ft | 537 kts | 128° |
| 2026-05-08 00:21 | 39.55461 | 55.66159 | 39085 ft | 537 kts | 128° |
| 2026-05-08 00:22 | 39.51614 | 55.74442 | 39084 ft | 538 kts | 128° |
| 2026-05-08 00:22 | 39.47744 | 55.82776 | 39077 ft | 539 kts | 128° |
| 2026-05-08 00:23 | 39.43947 | 55.91103 | 39064 ft | 539 kts | 128° |
| 2026-05-08 00:23 | 39.40151 | 55.99452 | 39074 ft | 539 kts | 128° |
| 2026-05-08 00:24 | 39.36333 | 56.07809 | 39076 ft | 539 kts | 128° |
| 2026-05-08 00:24 | 39.32507 | 56.16143 | 39057 ft | 539 kts | 128° |
| 2026-05-08 00:25 | 39.28677 | 56.24460 | 39066 ft | 540 kts | 128° |
| 2026-05-08 00:25 | 39.24822 | 56.32809 | 39079 ft | 540 kts | 128° |
| 2026-05-08 00:26 | 39.20993 | 56.41082 | 39060 ft | 540 kts | 128° |
| 2026-05-08 00:26 | 39.17114 | 56.49441 | 39071 ft | 541 kts | 128° |
| 2026-05-08 00:27 | 39.13261 | 56.57719 | 39064 ft | 542 kts | 128° |
| 2026-05-08 00:27 | 39.09363 | 56.66075 | 39067 ft | 542 kts | 128° |
| 2026-05-08 00:28 | 39.05472 | 56.74392 | 39067 ft | 543 kts | 128° |
| 2026-05-08 00:28 | 39.01569 | 56.82714 | 39067 ft | 544 kts | 128° |
| 2026-05-08 00:29 | 38.97685 | 56.90976 | 39061 ft | 543 kts | 128° |
| 2026-05-08 00:29 | 38.93738 | 56.99349 | 39062 ft | 545 kts | 128° |
| 2026-05-08 00:30 | 38.89810 | 57.07658 | 39061 ft | 545 kts | 128° |
| 2026-05-08 00:30 | 38.85890 | 57.15932 | 39054 ft | 545 kts | 128° |
| 2026-05-08 00:31 | 38.81944 | 57.24235 | 39060 ft | 547 kts | 128° |
| 2026-05-08 00:31 | 38.77960 | 57.32596 | 39055 ft | 547 kts | 128° |
| 2026-05-08 00:32 | 38.73982 | 57.40927 | 39045 ft | 547 kts | 128° |
| 2026-05-08 00:32 | 38.70023 | 57.49194 | 39051 ft | 548 kts | 128° |
| 2026-05-08 00:33 | 38.66040 | 57.57492 | 39050 ft | 548 kts | 128° |
| 2026-05-08 00:33 | 38.62106 | 57.65836 | 39036 ft | 551 kts | 123° |
| 2026-05-08 00:34 | 38.58790 | 57.74783 | 39055 ft | 556 kts | 120° |
| 2026-05-08 00:34 | 38.55641 | 57.83789 | 39040 ft | 557 kts | 119° |
| 2026-05-08 00:35 | 38.52510 | 57.92799 | 39041 ft | 556 kts | 119° |
| 2026-05-08 00:35 | 38.49351 | 58.01819 | 39041 ft | 555 kts | 119° |
| 2026-05-08 00:36 | 38.46193 | 58.10774 | 39039 ft | 555 kts | 119° |
| 2026-05-08 00:36 | 38.43016 | 58.19748 | 39042 ft | 555 kts | 120° |
| 2026-05-08 00:37 | 38.39725 | 58.28615 | 39040 ft | 550 kts | 126° |
| 2026-05-08 00:38 | 38.33940 | 58.41218 | 39034 ft | 549 kts | 127° |
| 2026-05-08 00:38 | 38.30001 | 58.49527 | 39020 ft | 548 kts | 127° |
| 2026-05-08 00:39 | 38.26044 | 58.57862 | 39036 ft | 549 kts | 127° |
| 2026-05-08 00:39 | 38.22088 | 58.66202 | 39040 ft | 549 kts | 127° |
| 2026-05-08 00:40 | 38.18156 | 58.74479 | 39015 ft | 549 kts | 127° |
| 2026-05-08 00:40 | 38.14213 | 58.82757 | 39032 ft | 549 kts | 127° |
| 2026-05-08 00:41 | 38.10232 | 58.91091 | 39032 ft | 550 kts | 127° |
| 2026-05-08 00:41 | 38.06256 | 58.99397 | 39032 ft | 550 kts | 127° |
| 2026-05-08 00:42 | 38.02296 | 59.07646 | 39026 ft | 550 kts | 126° |
| 2026-05-08 00:42 | 37.98308 | 59.15933 | 39026 ft | 550 kts | 126° |
| 2026-05-08 00:43 | 37.94316 | 59.24208 | 39029 ft | 550 kts | 126° |
| 2026-05-08 00:43 | 37.90315 | 59.32476 | 39028 ft | 550 kts | 126° |
| 2026-05-08 00:44 | 37.85901 | 59.40328 | 39026 ft | 545 kts | 132° |
| 2026-05-08 00:44 | 37.81325 | 59.47977 | 39032 ft | 544 kts | 133° |
| 2026-05-08 00:45 | 37.76736 | 59.55555 | 39025 ft | 544 kts | 133° |
| 2026-05-08 00:45 | 37.72142 | 59.63139 | 39027 ft | 544 kts | 132° |
| 2026-05-08 00:46 | 37.67562 | 59.70701 | 39033 ft | 543 kts | 132° |
| 2026-05-08 00:46 | 37.62960 | 59.78288 | 39031 ft | 542 kts | 132° |
| 2026-05-08 00:47 | 37.58393 | 59.85800 | 39032 ft | 541 kts | 132° |
| 2026-05-08 00:47 | 37.53816 | 59.93309 | 39045 ft | 541 kts | 132° |
| 2026-05-08 00:48 | 37.49213 | 60.00845 | 39033 ft | 539 kts | 133° |
| 2026-05-08 00:48 | 37.44667 | 60.08272 | 39034 ft | 538 kts | 133° |
| 2026-05-08 00:49 | 37.40086 | 60.15737 | 39041 ft | 538 kts | 133° |
| 2026-05-08 00:49 | 37.35516 | 60.23166 | 39034 ft | 538 kts | 133° |
| 2026-05-08 00:50 | 37.30916 | 60.30629 | 39043 ft | 537 kts | 133° |
| 2026-05-08 00:50 | 37.26350 | 60.38022 | 39042 ft | 537 kts | 133° |
| 2026-05-08 00:51 | 37.21747 | 60.45456 | 39042 ft | 537 kts | 133° |
| 2026-05-08 00:51 | 37.17166 | 60.52837 | 39042 ft | 537 kts | 133° |
| 2026-05-08 00:52 | 37.12574 | 60.60222 | 39042 ft | 537 kts | 133° |
| 2026-05-08 00:52 | 37.07991 | 60.67577 | 39029 ft | 538 kts | 133° |
| 2026-05-08 00:53 | 37.03375 | 60.74968 | 39040 ft | 536 kts | 133° |
| 2026-05-08 00:53 | 36.98794 | 60.82285 | 39044 ft | 535 kts | 133° |
| 2026-05-08 00:54 | 36.94295 | 60.89725 | 39045 ft | 537 kts | 130° |
| 2026-05-08 00:54 | 36.90064 | 60.97384 | 39052 ft | 537 kts | 129° |
| 2026-05-08 00:55 | 36.86517 | 61.03833 | 39053 ft | 536 kts | 129° |
| 2026-05-08 00:55 | 36.81548 | 61.12719 | 39051 ft | 535 kts | 130° |
| 2026-05-08 00:56 | 36.77981 | 61.19029 | 39030 ft | 535 kts | 130° |
| 2026-05-08 00:56 | 36.72991 | 61.27821 | 39043 ft | 535 kts | 130° |
| 2026-05-08 00:57 | 36.69387 | 61.34159 | 39045 ft | 536 kts | 130° |
| 2026-05-08 00:57 | 36.65087 | 61.41709 | 39049 ft | 536 kts | 130° |
| 2026-05-08 00:58 | 36.60768 | 61.49270 | 39041 ft | 536 kts | 130° |
| 2026-05-08 00:58 | 36.56373 | 61.56779 | 39048 ft | 537 kts | 131° |
| 2026-05-08 00:59 | 36.51956 | 61.64254 | 39048 ft | 537 kts | 131° |
| 2026-05-08 00:59 | 36.47534 | 61.71746 | 39037 ft | 537 kts | 131° |
| 2026-05-08 01:00 | 36.43116 | 61.79233 | 39051 ft | 538 kts | 131° |
| 2026-05-08 01:00 | 36.38683 | 61.86731 | 39057 ft | 540 kts | 131° |
| 2026-05-08 01:01 | 36.34254 | 61.94211 | 39060 ft | 540 kts | 131° |
| 2026-05-08 01:01 | 36.29796 | 62.01723 | 39058 ft | 540 kts | 131° |
| 2026-05-08 01:02 | 36.25364 | 62.09172 | 39056 ft | 541 kts | 131° |
| 2026-05-08 01:02 | 36.20862 | 62.16722 | 39059 ft | 541 kts | 131° |
| 2026-05-08 01:03 | 36.16416 | 62.24162 | 39058 ft | 541 kts | 131° |
| 2026-05-08 01:03 | 36.15661 | 62.25424 | 39061 ft | 541 kts | 131° |